Terminal Aerodrome Forecast
Issued by NWS

Home | Current Version | Previous Version | Text Only | Print | Product List | Glossary On
Versions: 1 2 3 4 5 6 7 8 9 10 11 12 13 14 15 16 17
000
FTUS41 KBTV 282321
TAFSLK
TAF
KSLK 282321Z 2900/2924 26007KT P6SM SCT200
     FM290900 22004KT P6SM BKN100
     FM291400 23009G17KT P6SM SCT090
     FM291800 26013G19KT P6SM SCT070=

USA.gov is the U.S. government's official web portal to all federal, state and local government web resources and services.